createdAt,value
2022-08-24T00:15:32.526Z,15.68
2022-08-24T00:18:00.841Z,14.50
2022-08-24T00:20:29.371Z,9.55
2022-08-24T00:22:57.541Z,9.43
2022-08-24T01:23:07.017Z,14.38
2022-08-24T01:25:37.916Z,17.17
2022-08-24T01:28:11.351Z,17.85
2022-08-24T01:30:39.803Z,14.50
2022-08-24T01:33:10.929Z,22.58
2022-08-24T01:35:40.529Z,15.13
2022-08-24T01:38:12.432Z,16.95
2022-08-24T01:40:47.550Z,17.48
2022-08-24T01:43:16.128Z,23.35
2022-08-24T01:45:45.141Z,18.08
2022-08-24T01:48:13.936Z,18.60
2022-08-24T01:50:42.279Z,17.52
2022-08-24T01:53:11.130Z,17.42
2022-08-24T01:55:39.347Z,20.73
2022-08-24T01:58:09.281Z,23.55
2022-08-24T02:00:38.101Z,22.08
2022-08-24T02:03:06.877Z,19.45
2022-08-24T02:05:36.431Z,23.30
2022-08-24T02:08:07.163Z,18.02
2022-08-24T02:10:36.248Z,18.15
2022-08-24T02:13:05.616Z,21.23
2022-08-24T02:15:39.828Z,20.17
2022-08-24T02:18:15.340Z,19.70
2022-08-24T02:20:47.491Z,22.38
2022-08-24T04:13:19.630Z,25.10
2022-08-24T08:22:56.788Z,3.72
2022-08-24T08:25:25.265Z,3.78
2022-08-24T08:27:53.493Z,5.53
2022-08-24T08:30:22.039Z,4.53
2022-08-24T08:32:50.192Z,3.90
2022-08-24T08:35:19.353Z,4.32
2022-08-24T08:37:49.687Z,3.42
2022-08-24T08:40:41.490Z,4.65
2022-08-24T08:43:14.853Z,4.10
2022-08-24T08:46:04.395Z,3.40
2022-08-24T08:49:03.901Z,5.03
2022-08-24T08:52:13.427Z,5.78
2022-08-24T08:54:55.857Z,6.47
2022-08-24T08:57:45.394Z,4.85
2022-08-24T09:00:22.232Z,5.63
2022-08-24T09:03:38.143Z,5.10
2022-08-24T09:06:31.520Z,6.03
2022-08-24T09:09:17.138Z,8.07
2022-08-24T09:11:57.628Z,6.65
2022-08-24T09:14:52.010Z,6.63
2022-08-24T09:17:32.263Z,3.85
2022-08-24T09:22:48.441Z,3.45
2022-08-24T09:25:33.369Z,2.92
2022-08-24T09:28:21.242Z,4.13
2022-08-24T09:31:11.653Z,3.28
2022-08-24T09:33:49.840Z,2.50
2022-08-24T09:36:29.168Z,2.42
2022-08-24T09:39:04.670Z,4.00
2022-08-24T09:42:18.806Z,3.38
2022-08-24T09:45:15.321Z,0.75
2022-08-24T09:48:22.730Z,1.33
2022-08-24T09:51:29.619Z,2.05
2022-08-24T09:54:27.403Z,2.22
2022-08-24T09:57:19.887Z,2.63
2022-08-24T10:00:09.236Z,3.55
2022-08-24T10:03:10.983Z,4.63
2022-08-24T10:06:12.100Z,4.03
2022-08-24T10:08:53.421Z,3.22
2022-08-24T10:11:32.282Z,2.58
2022-08-24T10:14:10.854Z,3.20
2022-08-24T10:16:48.417Z,2.13
2022-08-24T10:19:41.302Z,4.05
2022-08-24T10:22:30.424Z,2.22
2022-08-24T10:25:15.295Z,4.78
2022-08-24T10:27:56.539Z,3.10
2022-08-24T10:31:09.698Z,6.68
2022-08-24T10:33:55.873Z,4.57
2022-08-24T10:36:47.128Z,3.92
2022-08-24T10:39:43.807Z,4.20
2022-08-24T10:42:58.733Z,5.18
2022-08-24T10:45:57.909Z,6.22
2022-08-24T10:48:48.890Z,3.53
2022-08-24T10:51:36.177Z,1.23
2022-08-24T10:54:06.616Z,0.90
2022-08-24T10:56:41.787Z,1.50
2022-08-24T10:59:23.625Z,1.48
2022-08-24T11:02:11.911Z,1.02
2022-08-24T11:04:43.496Z,0.47
2022-08-24T11:07:18.692Z,1.48
2022-08-24T11:09:51.834Z,2.42
2022-08-24T11:12:28.287Z,1.05
2022-08-24T11:14:58.970Z,1.13
2022-08-24T11:17:28.781Z,0.98
2022-08-24T11:19:59.350Z,4.97
2022-08-24T11:22:41.001Z,6.70
2022-08-24T11:25:16.273Z,4.00
2022-08-24T11:27:47.335Z,3.08
2022-08-24T11:30:25.125Z,5.25
2022-08-24T11:32:56.589Z,1.33
2022-08-24T11:35:28.822Z,2.25
2022-08-24T11:37:59.266Z,4.00
2022-08-24T11:40:31.529Z,3.92
2022-08-24T11:43:18.436Z,2.35
2022-08-24T11:46:07.910Z,1.95
2022-08-24T11:48:46.978Z,7.10
2022-08-24T11:51:29.556Z,5.68
2022-08-24T11:54:06.394Z,7.13
2022-08-24T11:56:42.275Z,7.22
2022-08-24T11:59:29.343Z,18.25
2022-08-24T12:02:01.314Z,8.23
2022-08-24T12:04:45.211Z,4.43
2022-08-24T12:07:24.322Z,6.60
2022-08-24T12:10:06.213Z,2.63
2022-08-24T12:12:43.587Z,1.23
2022-08-24T12:15:17.143Z,1.33
2022-08-24T12:17:50.700Z,0.75
2022-08-24T12:20:31.938Z,5.00
2022-08-24T12:23:07.579Z,2.25
2022-08-24T12:25:54.310Z,1.02
2022-08-24T12:28:30.420Z,3.85
2022-08-24T12:31:04.301Z,1.90
2022-08-24T12:33:37.662Z,1.27
2022-08-24T12:36:14.726Z,4.90
2022-08-24T12:38:48.655Z,1.65
2022-08-24T12:41:21.425Z,2.15
2022-08-24T12:43:54.030Z,5.00
2022-08-24T12:46:25.677Z,0.32
2022-08-24T12:48:58.184Z,3.70
2022-08-24T12:51:31.695Z,0.45
2022-08-24T12:54:16.098Z,1.02
2022-08-24T12:57:12.607Z,1.55
2022-08-24T12:59:46.555Z,0.40
2022-08-24T13:02:31.971Z,0.40
2022-08-24T13:05:10.196Z,4.18
2022-08-24T13:07:45.437Z,2.55
2022-08-24T13:10:36.186Z,0.30
2022-08-24T13:13:15.727Z,1.40
2022-08-24T13:16:02.971Z,0.80
2022-08-24T13:19:05.652Z,5.38
2022-08-24T13:21:53.034Z,1.27
2022-08-24T13:24:55.265Z,3.47
2022-08-24T13:27:50.595Z,6.60
2022-08-24T13:30:38.229Z,2.20
2022-08-24T13:33:11.438Z,1.95
2022-08-24T13:36:01.957Z,5.53
2022-08-24T13:38:52.072Z,2.95
2022-08-24T13:41:39.123Z,2.45
2022-08-24T13:44:15.488Z,2.80
2022-08-24T13:46:55.091Z,2.20
2022-08-24T13:49:34.864Z,2.50
2022-08-24T13:52:16.635Z,5.03
2022-08-24T13:58:47.081Z,1.45
2022-08-24T14:01:31.241Z,3.70
2022-08-24T14:04:15.300Z,2.60
2022-08-24T14:06:55.334Z,1.85
2022-08-24T14:09:40.036Z,2.72
2022-08-24T14:12:25.034Z,5.22
2022-08-24T14:15:10.172Z,1.80
2022-08-24T14:17:54.111Z,2.70
2022-08-24T14:20:59.464Z,1.23
2022-08-24T14:23:44.722Z,2.38
2022-08-24T14:26:52.350Z,1.40
2022-08-24T14:29:32.729Z,2.35
2022-08-24T14:32:48.731Z,1.38
2022-08-24T14:35:39.145Z,2.08
2022-08-24T14:38:37.286Z,5.75
2022-08-24T14:41:49.121Z,4.30
2022-08-24T14:44:49.725Z,1.52
2022-08-24T14:47:27.542Z,2.58
2022-08-24T14:50:12.471Z,1.63
2022-08-24T14:52:51.667Z,0.63
2022-08-24T14:55:29.578Z,1.95
2022-08-24T14:58:08.450Z,1.55
2022-08-24T15:01:03.713Z,0.85
2022-08-24T15:03:58.431Z,6.38
2022-08-24T15:06:37.493Z,1.27
2022-08-24T15:09:12.588Z,0.57
2022-08-24T15:11:43.635Z,1.75
2022-08-24T15:14:24.245Z,2.08
2022-08-24T15:17:08.079Z,1.42
2022-08-24T15:19:45.346Z,1.40
2022-08-24T15:22:26.004Z,4.15
2022-08-24T15:25:00.473Z,1.80
2022-08-24T15:27:37.993Z,1.95
2022-08-24T15:30:09.849Z,1.75
2022-08-24T15:32:48.881Z,1.98
2022-08-24T15:35:30.255Z,1.80
2022-08-24T15:38:16.868Z,1.60
2022-08-24T15:40:48.887Z,1.67
2022-08-24T15:43:18.028Z,3.92
2022-08-24T15:45:48.636Z,0.57
2022-08-24T15:48:20.708Z,0.93
2022-08-24T15:50:50.126Z,1.48
2022-08-24T15:53:36.212Z,1.88
2022-08-24T15:56:27.899Z,2.05
2022-08-24T15:58:56.287Z,1.17
2022-08-24T16:01:46.632Z,0.40
2022-08-24T16:04:36.513Z,0.93
2022-08-24T16:07:05.189Z,0.85
2022-08-24T16:09:38.748Z,0.73
2022-08-24T16:12:14.017Z,1.65
2022-08-24T16:14:46.927Z,1.65
2022-08-24T16:17:32.910Z,2.15
2022-08-24T16:20:05.009Z,0.45
2022-08-24T16:22:37.479Z,1.23
2022-08-24T16:25:17.946Z,0.73
2022-08-24T16:27:57.465Z,4.90
2022-08-24T16:30:29.754Z,2.78
2022-08-24T16:33:02.166Z,4.35
2022-08-24T16:35:34.042Z,1.88
2022-08-24T16:38:03.655Z,1.58
2022-08-24T16:40:35.296Z,2.05
2022-08-24T16:43:04.015Z,0.85
2022-08-24T16:45:35.886Z,2.47
2022-08-24T16:48:05.382Z,2.88
2022-08-24T16:50:34.073Z,1.27
2022-08-24T16:53:02.336Z,1.15
2022-08-24T16:55:30.883Z,0.80
2022-08-24T16:58:01.617Z,1.35
2022-08-24T17:00:30.168Z,2.47
2022-08-24T17:02:58.563Z,2.58
2022-08-24T17:05:27.734Z,1.58
2022-08-24T17:07:56.052Z,1.02
2022-08-24T17:10:24.427Z,0.65
2022-08-24T17:12:52.731Z,6.00
2022-08-24T17:15:22.706Z,13.45
2022-08-24T17:17:57.484Z,3.60
2022-08-24T17:20:26.184Z,5.38
2022-08-24T17:22:54.478Z,4.82
2022-08-24T17:25:22.846Z,3.65
2022-08-24T17:27:52.740Z,14.73
2022-08-24T17:30:23.780Z,3.17
2022-08-24T17:32:52.920Z,4.50
2022-08-24T17:35:22.316Z,0.85
2022-08-24T17:37:52.268Z,0.65
2022-08-24T17:40:23.514Z,1.58
2022-08-24T17:42:52.445Z,1.70
2022-08-24T17:45:23.460Z,2.35
2022-08-24T17:47:52.786Z,0.70
2022-08-24T17:50:24.144Z,1.92
2022-08-24T17:52:59.161Z,0.75
2022-08-24T17:55:29.502Z,0.93
2022-08-24T17:57:58.535Z,0.70
2022-08-24T18:00:29.146Z,0.95
2022-08-24T18:02:57.554Z,1.33
2022-08-24T18:05:25.851Z,2.92
2022-08-24T18:07:56.307Z,3.05
2022-08-24T18:10:27.997Z,3.67
2022-08-24T18:12:57.953Z,1.30
2022-08-24T18:15:34.850Z,1.27
2022-08-24T18:18:08.937Z,2.00
2022-08-24T18:20:39.995Z,1.17
2022-08-24T18:23:12.061Z,1.25
2022-08-24T18:25:47.110Z,2.33
2022-08-24T18:28:16.768Z,2.75
2022-08-24T18:30:47.776Z,0.98
2022-08-24T18:33:17.058Z,9.20
2022-08-24T18:35:45.685Z,2.30
2022-08-24T18:38:14.100Z,0.80
2022-08-24T18:40:50.256Z,0.88
2022-08-24T18:43:23.346Z,2.15
2022-08-24T18:45:53.813Z,1.25
2022-08-24T18:48:22.578Z,4.75
2022-08-24T18:50:51.917Z,1.02
2022-08-24T18:53:20.622Z,2.85
2022-08-24T18:55:49.420Z,4.35
2022-08-24T18:58:17.725Z,3.88
2022-08-24T19:00:46.552Z,2.13
2022-08-24T19:03:22.410Z,1.92
2022-08-24T19:05:50.663Z,5.38
2022-08-24T19:08:18.961Z,1.88
2022-08-24T19:10:47.138Z,3.83
2022-08-24T19:13:18.372Z,3.05
2022-08-24T19:15:47.710Z,2.88
2022-08-24T19:18:19.139Z,3.17
2022-08-24T19:20:50.113Z,1.85
2022-08-24T19:23:21.399Z,1.77
2022-08-24T19:25:50.104Z,1.70
2022-08-24T19:28:19.339Z,6.38
2022-08-24T19:30:49.009Z,3.35
2022-08-24T19:33:26.222Z,1.92
2022-08-24T19:35:54.959Z,1.60
2022-08-24T19:38:26.162Z,2.22
2022-08-24T19:40:57.144Z,2.45
2022-08-24T19:43:26.872Z,1.98
2022-08-24T19:46:07.605Z,2.58
2022-08-24T19:48:39.622Z,2.35
2022-08-24T19:51:11.958Z,2.88
2022-08-24T19:53:40.495Z,2.25
2022-08-24T19:56:09.725Z,3.53
2022-08-24T19:58:42.441Z,2.75
2022-08-24T20:01:13.798Z,3.65
2022-08-24T20:03:43.544Z,4.32
2022-08-24T20:06:12.440Z,4.57
2022-08-24T20:08:41.460Z,2.47
2022-08-24T20:11:11.340Z,2.13
2022-08-24T20:13:39.642Z,2.63
2022-08-24T20:16:10.816Z,2.45
2022-08-24T20:18:39.775Z,2.97
2022-08-24T20:21:10.243Z,6.10
2022-08-24T20:23:38.619Z,2.45
2022-08-24T20:26:09.310Z,6.00
2022-08-24T20:28:43.602Z,2.75
2022-08-24T20:31:11.924Z,5.82
2022-08-24T20:33:40.467Z,3.75
2022-08-24T20:36:20.557Z,4.72
2022-08-24T20:38:48.760Z,2.58
2022-08-24T20:41:17.451Z,2.28
2022-08-24T20:43:46.138Z,2.72
2022-08-24T20:46:14.483Z,5.13
2022-08-24T20:48:43.375Z,2.28
2022-08-24T20:51:13.098Z,3.83
2022-08-24T20:53:41.335Z,2.63
2022-08-24T20:56:12.596Z,2.08
2022-08-24T20:58:41.819Z,2.88
2022-08-24T21:01:10.378Z,5.60
2022-08-24T21:03:38.767Z,3.53
2022-08-24T21:06:08.802Z,4.72
2022-08-24T21:08:39.826Z,4.78
2022-08-24T21:11:08.063Z,5.28
2022-08-24T21:13:38.698Z,5.10
2022-08-24T21:16:07.614Z,5.57
2022-08-24T21:18:37.257Z,4.43
2022-08-24T21:21:06.117Z,6.97
2022-08-24T21:23:35.656Z,3.55
2022-08-24T21:26:08.735Z,3.95
2022-08-24T21:28:37.926Z,3.38
2022-08-24T21:31:06.619Z,4.47
2022-08-24T21:34:04.538Z,3.97
2022-08-24T21:36:32.810Z,5.65
2022-08-24T21:39:01.168Z,2.63
2022-08-24T21:41:30.761Z,2.92
2022-08-24T21:43:59.034Z,3.00
2022-08-24T21:46:32.515Z,4.20
2022-08-24T21:49:01.211Z,4.22
2022-08-24T21:51:29.464Z,7.90
2022-08-24T21:53:59.609Z,6.97
2022-08-24T21:56:31.522Z,5.18
2022-08-24T21:59:00.127Z,4.50
2022-08-24T22:01:29.052Z,5.22
2022-08-24T22:04:01.508Z,5.13
2022-08-24T22:06:31.764Z,5.05
2022-08-24T22:09:00.833Z,5.90
2022-08-24T22:11:31.037Z,5.53
2022-08-24T22:13:59.369Z,5.60
2022-08-24T22:16:27.748Z,5.47
2022-08-24T22:18:57.620Z,5.95
2022-08-24T22:21:29.518Z,5.25
2022-08-24T22:23:58.309Z,4.22
2022-08-24T22:26:27.728Z,4.13
2022-08-24T22:28:57.426Z,4.72
2022-08-24T22:31:27.963Z,3.78
2022-08-24T22:33:58.325Z,4.28
2022-08-24T22:36:27.903Z,3.85
2022-08-24T22:38:57.125Z,4.30
2022-08-24T22:41:26.405Z,4.03
2022-08-24T22:44:14.521Z,4.32
2022-08-24T22:46:43.161Z,3.75
2022-08-24T22:49:12.235Z,3.38
2022-08-24T22:51:41.048Z,4.00
2022-08-24T22:54:10.642Z,4.05
2022-08-24T22:56:41.126Z,4.70
2022-08-24T22:59:16.076Z,5.10
2022-08-24T23:01:46.522Z,5.32
2022-08-24T23:04:19.101Z,5.15
2022-08-24T23:06:47.651Z,5.78
2022-08-24T23:09:15.968Z,5.72
2022-08-24T23:11:45.074Z,6.15
2022-08-24T23:14:15.684Z,4.82
2022-08-24T23:16:47.742Z,4.90
2022-08-24T23:19:36.395Z,5.97
2022-08-24T23:22:06.394Z,5.70
2022-08-24T23:24:35.274Z,5.30
2022-08-24T23:27:04.576Z,7.10
2022-08-24T23:29:33.103Z,6.05
2022-08-24T23:32:01.574Z,5.78
2022-08-24T23:34:31.235Z,4.80
2022-08-24T23:36:59.420Z,5.95
2022-08-24T23:39:28.394Z,5.22
2022-08-24T23:41:56.838Z,5.30
2022-08-24T23:44:28.565Z,9.15
2022-08-24T23:46:57.329Z,5.32
2022-08-24T23:49:26.903Z,5.25
2022-08-24T23:51:56.567Z,8.02
2022-08-24T23:54:25.759Z,5.40
2022-08-24T23:56:54.879Z,6.18
2022-08-24T23:59:24.952Z,5.72
